sensor_id;sensor_type;location;lat;lon;timestamp;P1;durP1;ratioP1;P2;durP2;ratioP2
21458;SDS011;10891;49.350;19.386;2022-10-31T00:02:24;22.42;;;10.55;;
21458;SDS011;10891;49.350;19.386;2022-10-31T00:04:50;25.40;;;10.85;;
21458;SDS011;10891;49.350;19.386;2022-10-31T00:07:19;27.13;;;11.00;;
21458;SDS011;10891;49.350;19.386;2022-10-31T00:09:45;22.40;;;9.82;;
21458;SDS011;10891;49.350;19.386;2022-10-31T00:12:12;30.45;;;10.60;;
21458;SDS011;10891;49.350;19.386;2022-10-31T00:14:39;21.65;;;9.50;;
21458;SDS011;10891;49.350;19.386;2022-10-31T00:17:06;22.60;;;9.13;;
21458;SDS011;10891;49.350;19.386;2022-10-31T00:19:33;21.48;;;9.77;;
21458;SDS011;10891;49.350;19.386;2022-10-31T00:22:00;24.02;;;10.68;;
21458;SDS011;10891;49.350;19.386;2022-10-31T00:24:28;23.08;;;10.35;;
21458;SDS011;10891;49.350;19.386;2022-10-31T00:26:54;17.80;;;9.20;;
21458;SDS011;10891;49.350;19.386;2022-10-31T00:29:21;22.80;;;8.15;;
21458;SDS011;10891;49.350;19.386;2022-10-31T00:31:48;17.75;;;8.23;;
21458;SDS011;10891;49.350;19.386;2022-10-31T00:34:15;18.63;;;6.43;;
21458;SDS011;10891;49.350;19.386;2022-10-31T00:36:42;23.75;;;8.75;;
21458;SDS011;10891;49.350;19.386;2022-10-31T00:39:09;12.55;;;5.38;;
21458;SDS011;10891;49.350;19.386;2022-10-31T00:41:37;18.23;;;6.57;;
21458;SDS011;10891;49.350;19.386;2022-10-31T00:44:04;26.42;;;18.15;;
21458;SDS011;10891;49.350;19.386;2022-10-31T00:46:31;16.90;;;10.18;;
21458;SDS011;10891;49.350;19.386;2022-10-31T00:48:57;13.05;;;5.32;;
21458;SDS011;10891;49.350;19.386;2022-10-31T00:51:24;16.35;;;4.30;;
21458;SDS011;10891;49.350;19.386;2022-10-31T00:53:51;13.15;;;4.25;;
21458;SDS011;10891;49.350;19.386;2022-10-31T00:56:18;33.90;;;10.93;;
21458;SDS011;10891;49.350;19.386;2022-10-31T00:58:46;15.35;;;5.93;;
21458;SDS011;10891;49.350;19.386;2022-10-31T01:01:13;12.82;;;5.75;;
21458;SDS011;10891;49.350;19.386;2022-10-31T01:03:40;13.35;;;4.63;;
21458;SDS011;10891;49.350;19.386;2022-10-31T01:06:07;12.70;;;5.38;;
21458;SDS011;10891;49.350;19.386;2022-10-31T01:08:36;14.07;;;4.80;;
21458;SDS011;10891;49.350;19.386;2022-10-31T01:11:05;12.07;;;6.15;;
21458;SDS011;10891;49.350;19.386;2022-10-31T01:13:33;11.48;;;4.68;;
21458;SDS011;10891;49.350;19.386;2022-10-31T01:16:03;14.50;;;7.10;;
21458;SDS011;10891;49.350;19.386;2022-10-31T01:18:31;10.57;;;4.97;;
21458;SDS011;10891;49.350;19.386;2022-10-31T01:21:00;10.43;;;4.25;;
21458;SDS011;10891;49.350;19.386;2022-10-31T01:23:28;9.10;;;4.00;;
21458;SDS011;10891;49.350;19.386;2022-10-31T01:25:59;9.48;;;4.57;;
21458;SDS011;10891;49.350;19.386;2022-10-31T01:28:27;9.68;;;4.32;;
21458;SDS011;10891;49.350;19.386;2022-10-31T01:30:54;18.40;;;4.57;;
21458;SDS011;10891;49.350;19.386;2022-10-31T01:33:22;15.43;;;4.35;;
21458;SDS011;10891;49.350;19.386;2022-10-31T01:35:49;14.93;;;4.70;;
21458;SDS011;10891;49.350;19.386;2022-10-31T01:38:15;21.63;;;6.70;;
21458;SDS011;10891;49.350;19.386;2022-10-31T01:40:42;11.95;;;5.70;;
21458;SDS011;10891;49.350;19.386;2022-10-31T01:43:11;15.57;;;6.43;;
21458;SDS011;10891;49.350;19.386;2022-10-31T01:45:39;13.25;;;6.22;;
21458;SDS011;10891;49.350;19.386;2022-10-31T01:48:09;14.18;;;6.93;;
21458;SDS011;10891;49.350;19.386;2022-10-31T01:50:41;17.90;;;7.53;;
21458;SDS011;10891;49.350;19.386;2022-10-31T01:53:11;12.30;;;4.63;;
21458;SDS011;10891;49.350;19.386;2022-10-31T01:55:39;19.10;;;7.20;;
21458;SDS011;10891;49.350;19.386;2022-10-31T01:58:08;14.00;;;6.30;;
21458;SDS011;10891;49.350;19.386;2022-10-31T02:00:39;19.98;;;6.68;;
21458;SDS011;10891;49.350;19.386;2022-10-31T02:03:11;15.10;;;4.57;;
21458;SDS011;10891;49.350;19.386;2022-10-31T02:05:38;11.40;;;5.60;;
21458;SDS011;10891;49.350;19.386;2022-10-31T02:08:07;9.35;;;4.22;;
21458;SDS011;10891;49.350;19.386;2022-10-31T02:10:38;7.68;;;3.50;;
21458;SDS011;10891;49.350;19.386;2022-10-31T02:13:06;9.75;;;3.60;;
21458;SDS011;10891;49.350;19.386;2022-10-31T02:15:34;8.30;;;3.80;;
21458;SDS011;10891;49.350;19.386;2022-10-31T02:18:03;10.98;;;4.10;;
21458;SDS011;10891;49.350;19.386;2022-10-31T02:20:32;6.85;;;3.65;;
21458;SDS011;10891;49.350;19.386;2022-10-31T02:26:12;8.13;;;4.03;;
21458;SDS011;10891;49.350;19.386;2022-10-31T02:28:57;10.40;;;5.00;;
21458;SDS011;10891;49.350;19.386;2022-10-31T02:31:35;11.77;;;4.85;;
21458;SDS011;10891;49.350;19.386;2022-10-31T02:34:10;12.32;;;3.75;;
21458;SDS011;10891;49.350;19.386;2022-10-31T02:36:46;11.18;;;5.10;;
21458;SDS011;10891;49.350;19.386;2022-10-31T02:39:21;24.95;;;9.52;;
21458;SDS011;10891;49.350;19.386;2022-10-31T02:41:52;9.70;;;5.13;;
21458;SDS011;10891;49.350;19.386;2022-10-31T02:44:30;16.98;;;5.75;;
21458;SDS011;10891;49.350;19.386;2022-10-31T02:47:06;13.10;;;5.22;;
21458;SDS011;10891;49.350;19.386;2022-10-31T02:49:38;12.55;;;4.60;;
21458;SDS011;10891;49.350;19.386;2022-10-31T02:52:18;10.82;;;4.30;;
21458;SDS011;10891;49.350;19.386;2022-10-31T02:54:46;12.30;;;3.75;;
21458;SDS011;10891;49.350;19.386;2022-10-31T02:57:14;12.27;;;4.30;;
21458;SDS011;10891;49.350;19.386;2022-10-31T02:59:46;10.20;;;3.40;;
21458;SDS011;10891;49.350;19.386;2022-10-31T03:02:31;9.93;;;3.53;;
21458;SDS011;10891;49.350;19.386;2022-10-31T03:05:16;13.88;;;3.83;;
21458;SDS011;10891;49.350;19.386;2022-10-31T03:07:57;9.30;;;3.53;;
21458;SDS011;10891;49.350;19.386;2022-10-31T03:10:31;9.15;;;3.13;;
21458;SDS011;10891;49.350;19.386;2022-10-31T03:13:07;4.93;;;2.60;;
21458;SDS011;10891;49.350;19.386;2022-10-31T03:15:37;8.82;;;3.08;;
21458;SDS011;10891;49.350;19.386;2022-10-31T03:18:10;10.07;;;3.83;;
21458;SDS011;10891;49.350;19.386;2022-10-31T03:20:43;9.60;;;4.95;;
21458;SDS011;10891;49.350;19.386;2022-10-31T03:23:15;7.93;;;3.30;;
21458;SDS011;10891;49.350;19.386;2022-10-31T03:25:43;11.55;;;7.38;;
21458;SDS011;10891;49.350;19.386;2022-10-31T03:28:12;13.55;;;5.40;;
21458;SDS011;10891;49.350;19.386;2022-10-31T03:30:44;9.65;;;3.63;;
21458;SDS011;10891;49.350;19.386;2022-10-31T03:33:15;13.30;;;4.18;;
21458;SDS011;10891;49.350;19.386;2022-10-31T03:35:45;14.25;;;5.35;;
21458;SDS011;10891;49.350;19.386;2022-10-31T03:38:14;10.77;;;4.50;;
21458;SDS011;10891;49.350;19.386;2022-10-31T03:40:43;6.18;;;3.70;;
21458;SDS011;10891;49.350;19.386;2022-10-31T03:43:13;12.73;;;4.00;;
21458;SDS011;10891;49.350;19.386;2022-10-31T03:45:44;8.45;;;3.47;;
21458;SDS011;10891;49.350;19.386;2022-10-31T03:48:14;13.07;;;4.53;;
21458;SDS011;10891;49.350;19.386;2022-10-31T03:50:45;14.98;;;5.40;;
21458;SDS011;10891;49.350;19.386;2022-10-31T03:53:20;13.57;;;5.13;;
21458;SDS011;10891;49.350;19.386;2022-10-31T03:55:52;15.57;;;7.53;;
21458;SDS011;10891;49.350;19.386;2022-10-31T03:58:26;13.73;;;5.63;;
21458;SDS011;10891;49.350;19.386;2022-10-31T04:00:57;14.85;;;4.68;;
21458;SDS011;10891;49.350;19.386;2022-10-31T04:03:29;32.97;;;10.20;;
21458;SDS011;10891;49.350;19.386;2022-10-31T04:05:59;26.17;;;9.88;;
21458;SDS011;10891;49.350;19.386;2022-10-31T04:08:30;30.77;;;9.05;;
21458;SDS011;10891;49.350;19.386;2022-10-31T04:11:00;26.15;;;9.45;;
21458;SDS011;10891;49.350;19.386;2022-10-31T04:13:29;24.52;;;10.35;;
21458;SDS011;10891;49.350;19.386;2022-10-31T04:16:00;21.75;;;8.70;;
21458;SDS011;10891;49.350;19.386;2022-10-31T04:18:26;24.27;;;8.02;;
21458;SDS011;10891;49.350;19.386;2022-10-31T04:21:00;26.80;;;9.80;;
21458;SDS011;10891;49.350;19.386;2022-10-31T04:23:28;16.35;;;7.72;;
21458;SDS011;10891;49.350;19.386;2022-10-31T04:25:56;14.07;;;4.70;;
21458;SDS011;10891;49.350;19.386;2022-10-31T04:28:23;18.42;;;6.53;;
21458;SDS011;10891;49.350;19.386;2022-10-31T04:30:50;23.70;;;9.43;;
21458;SDS011;10891;49.350;19.386;2022-10-31T04:33:17;26.30;;;10.85;;
21458;SDS011;10891;49.350;19.386;2022-10-31T04:35:44;20.77;;;8.00;;
21458;SDS011;10891;49.350;19.386;2022-10-31T04:38:13;17.40;;;5.70;;
21458;SDS011;10891;49.350;19.386;2022-10-31T04:40:40;12.10;;;4.00;;
21458;SDS011;10891;49.350;19.386;2022-10-31T04:43:06;9.10;;;4.72;;
21458;SDS011;10891;49.350;19.386;2022-10-31T04:45:33;12.65;;;5.90;;
21458;SDS011;10891;49.350;19.386;2022-10-31T04:48:00;17.58;;;6.07;;
21458;SDS011;10891;49.350;19.386;2022-10-31T04:50:27;13.60;;;4.60;;
21458;SDS011;10891;49.350;19.386;2022-10-31T04:52:54;8.30;;;3.78;;
21458;SDS011;10891;49.350;19.386;2022-10-31T04:55:22;7.43;;;4.32;;
21458;SDS011;10891;49.350;19.386;2022-10-31T04:57:49;9.68;;;4.82;;
21458;SDS011;10891;49.350;19.386;2022-10-31T05:00:17;17.23;;;4.53;;
21458;SDS011;10891;49.350;19.386;2022-10-31T05:02:45;11.48;;;3.97;;
21458;SDS011;10891;49.350;19.386;2022-10-31T05:05:13;13.52;;;5.03;;
21458;SDS011;10891;49.350;19.386;2022-10-31T05:07:41;11.30;;;5.22;;
21458;SDS011;10891;49.350;19.386;2022-10-31T05:10:09;14.45;;;6.40;;
21458;SDS011;10891;49.350;19.386;2022-10-31T05:12:44;18.75;;;8.52;;
21458;SDS011;10891;49.350;19.386;2022-10-31T05:15:13;20.05;;;9.38;;
21458;SDS011;10891;49.350;19.386;2022-10-31T05:17:40;19.25;;;8.55;;
21458;SDS011;10891;49.350;19.386;2022-10-31T05:20:07;20.85;;;7.38;;
21458;SDS011;10891;49.350;19.386;2022-10-31T05:22:35;48.47;;;24.92;;
21458;SDS011;10891;49.350;19.386;2022-10-31T05:25:02;33.85;;;15.00;;
21458;SDS011;10891;49.350;19.386;2022-10-31T05:27:29;45.20;;;15.02;;
21458;SDS011;10891;49.350;19.386;2022-10-31T05:29:59;45.70;;;18.92;;
21458;SDS011;10891;49.350;19.386;2022-10-31T05:32:26;93.60;;;34.28;;
21458;SDS011;10891;49.350;19.386;2022-10-31T05:34:52;193.88;;;68.53;;
21458;SDS011;10891;49.350;19.386;2022-10-31T05:37:19;76.70;;;29.80;;
21458;SDS011;10891;49.350;19.386;2022-10-31T05:39:46;180.95;;;64.82;;
21458;SDS011;10891;49.350;19.386;2022-10-31T05:42:13;68.18;;;26.65;;
21458;SDS011;10891;49.350;19.386;2022-10-31T05:44:40;60.38;;;23.58;;
21458;SDS011;10891;49.350;19.386;2022-10-31T05:47:09;73.45;;;29.38;;
21458;SDS011;10891;49.350;19.386;2022-10-31T05:49:36;55.90;;;21.73;;
21458;SDS011;10891;49.350;19.386;2022-10-31T05:52:03;46.65;;;19.88;;
21458;SDS011;10891;49.350;19.386;2022-10-31T05:54:30;40.55;;;16.20;;
21458;SDS011;10891;49.350;19.386;2022-10-31T05:56:57;22.20;;;10.25;;
21458;SDS011;10891;49.350;19.386;2022-10-31T05:59:24;49.05;;;19.27;;
21458;SDS011;10891;49.350;19.386;2022-10-31T06:01:51;20.65;;;10.35;;
21458;SDS011;10891;49.350;19.386;2022-10-31T06:04:20;28.27;;;11.45;;
21458;SDS011;10891;49.350;19.386;2022-10-31T06:06:47;30.27;;;13.07;;
21458;SDS011;10891;49.350;19.386;2022-10-31T06:09:14;36.15;;;13.57;;
21458;SDS011;10891;49.350;19.386;2022-10-31T06:11:41;45.53;;;18.20;;
21458;SDS011;10891;49.350;19.386;2022-10-31T06:14:08;16.15;;;7.40;;
21458;SDS011;10891;49.350;19.386;2022-10-31T06:16:35;22.02;;;7.53;;
21458;SDS011;10891;49.350;19.386;2022-10-31T06:19:02;19.08;;;7.05;;
21458;SDS011;10891;49.350;19.386;2022-10-31T06:21:30;15.65;;;6.95;;
21458;SDS011;10891;49.350;19.386;2022-10-31T06:23:57;17.05;;;6.03;;
21458;SDS011;10891;49.350;19.386;2022-10-31T06:26:24;19.50;;;7.72;;
21458;SDS011;10891;49.350;19.386;2022-10-31T06:28:51;16.95;;;7.47;;
21458;SDS011;10891;49.350;19.386;2022-10-31T06:31:18;25.67;;;8.90;;
21458;SDS011;10891;49.350;19.386;2022-10-31T06:33:45;21.05;;;10.25;;
21458;SDS011;10891;49.350;19.386;2022-10-31T06:36:12;31.40;;;13.48;;
21458;SDS011;10891;49.350;19.386;2022-10-31T06:38:41;32.75;;;13.73;;
21458;SDS011;10891;49.350;19.386;2022-10-31T06:41:07;53.28;;;18.95;;
21458;SDS011;10891;49.350;19.386;2022-10-31T06:43:34;76.40;;;33.85;;
21458;SDS011;10891;49.350;19.386;2022-10-31T06:46:01;74.47;;;39.17;;
21458;SDS011;10891;49.350;19.386;2022-10-31T06:48:29;65.38;;;37.03;;
21458;SDS011;10891;49.350;19.386;2022-10-31T06:50:57;76.68;;;37.50;;
21458;SDS011;10891;49.350;19.386;2022-10-31T06:53:24;70.30;;;37.72;;
21458;SDS011;10891;49.350;19.386;2022-10-31T06:55:52;76.40;;;33.47;;
21458;SDS011;10891;49.350;19.386;2022-10-31T06:58:20;58.22;;;27.83;;
21458;SDS011;10891;49.350;19.386;2022-10-31T07:00:48;50.83;;;23.33;;
21458;SDS011;10891;49.350;19.386;2022-10-31T07:03:15;37.13;;;18.30;;
21458;SDS011;10891;49.350;19.386;2022-10-31T07:05:43;32.58;;;10.60;;
21458;SDS011;10891;49.350;19.386;2022-10-31T07:08:10;37.25;;;12.57;;
21458;SDS011;10891;49.350;19.386;2022-10-31T07:10:39;36.88;;;11.60;;
21458;SDS011;10891;49.350;19.386;2022-10-31T07:13:10;24.30;;;11.18;;
21458;SDS011;10891;49.350;19.386;2022-10-31T07:15:38;19.27;;;8.20;;
21458;SDS011;10891;49.350;19.386;2022-10-31T07:18:07;31.77;;;8.80;;
21458;SDS011;10891;49.350;19.386;2022-10-31T07:20:35;25.35;;;9.75;;
21458;SDS011;10891;49.350;19.386;2022-10-31T07:23:02;20.15;;;9.35;;
21458;SDS011;10891;49.350;19.386;2022-10-31T07:25:30;27.88;;;11.65;;
21458;SDS011;10891;49.350;19.386;2022-10-31T07:27:57;26.02;;;9.52;;
21458;SDS011;10891;49.350;19.386;2022-10-31T07:30:25;21.27;;;9.20;;
21458;SDS011;10891;49.350;19.386;2022-10-31T07:32:52;27.83;;;10.45;;
21458;SDS011;10891;49.350;19.386;2022-10-31T07:35:21;25.48;;;9.48;;
21458;SDS011;10891;49.350;19.386;2022-10-31T07:37:49;33.25;;;9.93;;
21458;SDS011;10891;49.350;19.386;2022-10-31T07:40:16;20.70;;;9.82;;
21458;SDS011;10891;49.350;19.386;2022-10-31T07:42:45;26.83;;;9.20;;
21458;SDS011;10891;49.350;19.386;2022-10-31T07:45:13;35.05;;;8.98;;
21458;SDS011;10891;49.350;19.386;2022-10-31T07:47:45;18.17;;;8.43;;
21458;SDS011;10891;49.350;19.386;2022-10-31T07:50:15;22.55;;;8.55;;
21458;SDS011;10891;49.350;19.386;2022-10-31T07:52:44;30.33;;;10.13;;
21458;SDS011;10891;49.350;19.386;2022-10-31T07:55:11;25.50;;;8.30;;
21458;SDS011;10891;49.350;19.386;2022-10-31T07:57:39;25.23;;;8.13;;
21458;SDS011;10891;49.350;19.386;2022-10-31T08:00:07;14.90;;;7.07;;
21458;SDS011;10891;49.350;19.386;2022-10-31T08:02:35;40.90;;;7.43;;
21458;SDS011;10891;49.350;19.386;2022-10-31T08:05:04;15.90;;;5.60;;
21458;SDS011;10891;49.350;19.386;2022-10-31T08:07:35;12.48;;;5.13;;
21458;SDS011;10891;49.350;19.386;2022-10-31T08:10:03;19.00;;;5.88;;
21458;SDS011;10891;49.350;19.386;2022-10-31T08:12:30;15.70;;;4.53;;
21458;SDS011;10891;49.350;19.386;2022-10-31T08:14:57;12.80;;;4.90;;
21458;SDS011;10891;49.350;19.386;2022-10-31T08:17:25;15.93;;;4.97;;
21458;SDS011;10891;49.350;19.386;2022-10-31T08:19:52;20.92;;;5.50;;
21458;SDS011;10891;49.350;19.386;2022-10-31T08:22:20;14.30;;;5.65;;
21458;SDS011;10891;49.350;19.386;2022-10-31T08:24:47;22.30;;;6.63;;
21458;SDS011;10891;49.350;19.386;2022-10-31T08:27:18;29.40;;;9.63;;
21458;SDS011;10891;49.350;19.386;2022-10-31T08:29:45;25.73;;;11.05;;
21458;SDS011;10891;49.350;19.386;2022-10-31T08:32:12;31.88;;;15.07;;
21458;SDS011;10891;49.350;19.386;2022-10-31T08:34:39;32.70;;;12.05;;
21458;SDS011;10891;49.350;19.386;2022-10-31T08:37:07;38.05;;;17.20;;
21458;SDS011;10891;49.350;19.386;2022-10-31T08:39:35;31.98;;;11.30;;
21458;SDS011;10891;49.350;19.386;2022-10-31T08:42:02;26.40;;;10.40;;
21458;SDS011;10891;49.350;19.386;2022-10-31T08:44:30;30.52;;;10.82;;
21458;SDS011;10891;49.350;19.386;2022-10-31T08:46:57;29.88;;;9.80;;
21458;SDS011;10891;49.350;19.386;2022-10-31T08:49:24;22.35;;;7.50;;
21458;SDS011;10891;49.350;19.386;2022-10-31T08:51:51;24.70;;;8.68;;
21458;SDS011;10891;49.350;19.386;2022-10-31T08:54:18;24.38;;;8.05;;
21458;SDS011;10891;49.350;19.386;2022-10-31T08:56:47;25.58;;;8.20;;
21458;SDS011;10891;49.350;19.386;2022-10-31T08:59:14;21.58;;;7.03;;
21458;SDS011;10891;49.350;19.386;2022-10-31T09:01:41;17.25;;;6.60;;
21458;SDS011;10891;49.350;19.386;2022-10-31T09:04:07;15.45;;;5.10;;
21458;SDS011;10891;49.350;19.386;2022-10-31T09:06:35;18.27;;;4.75;;
21458;SDS011;10891;49.350;19.386;2022-10-31T09:09:02;13.30;;;3.88;;
21458;SDS011;10891;49.350;19.386;2022-10-31T09:11:29;20.45;;;4.65;;
21458;SDS011;10891;49.350;19.386;2022-10-31T09:13:58;11.68;;;3.58;;
21458;SDS011;10891;49.350;19.386;2022-10-31T09:16:24;15.13;;;4.53;;
21458;SDS011;10891;49.350;19.386;2022-10-31T09:18:51;11.05;;;3.55;;
21458;SDS011;10891;49.350;19.386;2022-10-31T09:21:19;16.15;;;3.33;;
21458;SDS011;10891;49.350;19.386;2022-10-31T09:23:46;13.82;;;3.45;;
21458;SDS011;10891;49.350;19.386;2022-10-31T09:26:13;20.92;;;3.60;;
21458;SDS011;10891;49.350;19.386;2022-10-31T09:28:40;18.85;;;3.15;;
21458;SDS011;10891;49.350;19.386;2022-10-31T09:31:11;9.90;;;3.25;;
21458;SDS011;10891;49.350;19.386;2022-10-31T09:33:38;11.57;;;3.10;;
21458;SDS011;10891;49.350;19.386;2022-10-31T09:36:07;12.80;;;3.03;;
21458;SDS011;10891;49.350;19.386;2022-10-31T09:38:34;9.75;;;2.40;;
21458;SDS011;10891;49.350;19.386;2022-10-31T09:41:03;11.57;;;3.05;;
21458;SDS011;10891;49.350;19.386;2022-10-31T09:43:36;12.95;;;4.68;;
21458;SDS011;10891;49.350;19.386;2022-10-31T09:46:16;10.27;;;2.78;;
21458;SDS011;10891;49.350;19.386;2022-10-31T09:48:59;12.05;;;2.92;;
21458;SDS011;10891;49.350;19.386;2022-10-31T09:51:42;14.05;;;3.85;;
21458;SDS011;10891;49.350;19.386;2022-10-31T09:54:12;14.18;;;3.38;;
21458;SDS011;10891;49.350;19.386;2022-10-31T09:56:42;12.07;;;3.22;;
21458;SDS011;10891;49.350;19.386;2022-10-31T09:59:11;13.52;;;2.80;;
21458;SDS011;10891;49.350;19.386;2022-10-31T10:01:45;18.38;;;4.07;;
21458;SDS011;10891;49.350;19.386;2022-10-31T10:04:28;18.02;;;4.85;;
21458;SDS011;10891;49.350;19.386;2022-10-31T10:07:00;14.20;;;4.07;;
21458;SDS011;10891;49.350;19.386;2022-10-31T10:09:33;13.35;;;3.08;;
21458;SDS011;10891;49.350;19.386;2022-10-31T10:12:03;19.50;;;3.50;;
21458;SDS011;10891;49.350;19.386;2022-10-31T10:14:43;21.90;;;4.38;;
21458;SDS011;10891;49.350;19.386;2022-10-31T10:17:21;17.77;;;4.97;;
21458;SDS011;10891;49.350;19.386;2022-10-31T10:20:01;10.73;;;2.75;;
21458;SDS011;10891;49.350;19.386;2022-10-31T10:22:46;13.85;;;3.35;;
21458;SDS011;10891;49.350;19.386;2022-10-31T10:25:20;15.25;;;3.38;;
21458;SDS011;10891;49.350;19.386;2022-10-31T10:27:55;26.05;;;4.47;;
21458;SDS011;10891;49.350;19.386;2022-10-31T10:30:31;11.10;;;4.28;;
21458;SDS011;10891;49.350;19.386;2022-10-31T10:33:05;21.65;;;4.28;;
21458;SDS011;10891;49.350;19.386;2022-10-31T10:35:38;17.70;;;3.97;;
21458;SDS011;10891;49.350;19.386;2022-10-31T10:38:11;24.13;;;4.38;;
21458;SDS011;10891;49.350;19.386;2022-10-31T10:40:43;16.90;;;4.95;;
21458;SDS011;10891;49.350;19.386;2022-10-31T10:43:19;14.82;;;4.57;;
21458;SDS011;10891;49.350;19.386;2022-10-31T10:45:55;18.52;;;4.45;;
21458;SDS011;10891;49.350;19.386;2022-10-31T10:49:03;14.77;;;4.25;;
21458;SDS011;10891;49.350;19.386;2022-10-31T10:51:37;10.45;;;4.57;;
21458;SDS011;10891;49.350;19.386;2022-10-31T11:00:10;23.92;;;11.57;;
21458;SDS011;10891;49.350;19.386;2022-10-31T11:02:43;19.48;;;3.88;;
21458;SDS011;10891;49.350;19.386;2022-10-31T11:05:15;15.15;;;4.03;;
21458;SDS011;10891;49.350;19.386;2022-10-31T11:07:49;10.23;;;3.33;;
21458;SDS011;10891;49.350;19.386;2022-10-31T11:10:17;31.48;;;3.60;;
21458;SDS011;10891;49.350;19.386;2022-10-31T11:12:45;16.10;;;3.63;;
21458;SDS011;10891;49.350;19.386;2022-10-31T11:15:29;19.83;;;3.90;;
21458;SDS011;10891;49.350;19.386;2022-10-31T11:18:00;15.95;;;3.78;;
21458;SDS011;10891;49.350;19.386;2022-10-31T11:20:31;14.20;;;3.58;;
21458;SDS011;10891;49.350;19.386;2022-10-31T11:23:02;17.25;;;4.10;;
21458;SDS011;10891;49.350;19.386;2022-10-31T11:25:54;12.13;;;3.50;;
21458;SDS011;10891;49.350;19.386;2022-10-31T11:28:25;20.73;;;5.07;;
21458;SDS011;10891;49.350;19.386;2022-10-31T11:30:55;20.63;;;4.90;;
21458;SDS011;10891;49.350;19.386;2022-10-31T11:33:25;23.33;;;5.65;;
21458;SDS011;10891;49.350;19.386;2022-10-31T11:36:00;20.85;;;5.60;;
21458;SDS011;10891;49.350;19.386;2022-10-31T11:38:30;22.42;;;7.75;;
21458;SDS011;10891;49.350;19.386;2022-10-31T11:41:04;19.63;;;6.28;;
21458;SDS011;10891;49.350;19.386;2022-10-31T11:43:36;16.55;;;6.20;;
21458;SDS011;10891;49.350;19.386;2022-10-31T11:46:09;20.13;;;6.35;;
21458;SDS011;10891;49.350;19.386;2022-10-31T11:48:37;28.15;;;7.38;;
21458;SDS011;10891;49.350;19.386;2022-10-31T11:51:06;21.70;;;8.05;;
21458;SDS011;10891;49.350;19.386;2022-10-31T11:53:33;23.95;;;7.75;;
21458;SDS011;10891;49.350;19.386;2022-10-31T11:56:05;22.33;;;7.03;;
21458;SDS011;10891;49.350;19.386;2022-10-31T11:58:38;18.80;;;6.20;;
21458;SDS011;10891;49.350;19.386;2022-10-31T12:01:08;23.30;;;6.28;;
21458;SDS011;10891;49.350;19.386;2022-10-31T12:03:54;17.90;;;6.05;;
21458;SDS011;10891;49.350;19.386;2022-10-31T12:06:33;25.25;;;10.68;;
21458;SDS011;10891;49.350;19.386;2022-10-31T12:09:01;42.88;;;18.48;;
21458;SDS011;10891;49.350;19.386;2022-10-31T12:11:34;35.95;;;17.00;;
21458;SDS011;10891;49.350;19.386;2022-10-31T12:14:11;28.05;;;9.85;;
21458;SDS011;10891;49.350;19.386;2022-10-31T12:16:48;16.90;;;6.57;;
21458;SDS011;10891;49.350;19.386;2022-10-31T12:19:23;20.40;;;6.22;;
21458;SDS011;10891;49.350;19.386;2022-10-31T12:22:04;17.00;;;6.45;;
21458;SDS011;10891;49.350;19.386;2022-10-31T12:24:38;15.50;;;5.43;;
21458;SDS011;10891;49.350;19.386;2022-10-31T12:27:28;25.55;;;6.15;;
21458;SDS011;10891;49.350;19.386;2022-10-31T12:30:06;24.88;;;6.35;;
21458;SDS011;10891;49.350;19.386;2022-10-31T12:32:49;15.35;;;6.20;;
21458;SDS011;10891;49.350;19.386;2022-10-31T12:35:33;21.13;;;5.85;;
21458;SDS011;10891;49.350;19.386;2022-10-31T12:38:25;29.23;;;5.97;;
21458;SDS011;10891;49.350;19.386;2022-10-31T12:41:17;14.43;;;6.18;;
21458;SDS011;10891;49.350;19.386;2022-10-31T12:44:06;17.75;;;6.07;;
21458;SDS011;10891;49.350;19.386;2022-10-31T12:46:51;17.60;;;6.65;;
21458;SDS011;10891;49.350;19.386;2022-10-31T12:52:31;20.98;;;6.45;;
21458;SDS011;10891;49.350;19.386;2022-10-31T12:55:16;21.40;;;5.60;;
21458;SDS011;10891;49.350;19.386;2022-10-31T12:57:57;18.67;;;6.13;;
21458;SDS011;10891;49.350;19.386;2022-10-31T13:00:28;21.17;;;6.47;;
21458;SDS011;10891;49.350;19.386;2022-10-31T13:02:58;21.23;;;6.72;;
21458;SDS011;10891;49.350;19.386;2022-10-31T13:05:36;15.35;;;5.93;;
21458;SDS011;10891;49.350;19.386;2022-10-31T13:08:07;16.67;;;6.63;;
21458;SDS011;10891;49.350;19.386;2022-10-31T13:10:42;19.13;;;6.82;;
21458;SDS011;10891;49.350;19.386;2022-10-31T13:13:12;19.73;;;6.18;;
21458;SDS011;10891;49.350;19.386;2022-10-31T13:15:46;18.08;;;6.00;;
21458;SDS011;10891;49.350;19.386;2022-10-31T13:18:19;18.70;;;5.43;;
21458;SDS011;10891;49.350;19.386;2022-10-31T13:20:53;24.40;;;6.82;;
21458;SDS011;10891;49.350;19.386;2022-10-31T13:23:24;21.38;;;5.93;;
21458;SDS011;10891;49.350;19.386;2022-10-31T13:25:56;28.20;;;6.85;;
21458;SDS011;10891;49.350;19.386;2022-10-31T13:28:28;19.27;;;5.60;;
21458;SDS011;10891;49.350;19.386;2022-10-31T13:31:01;21.25;;;7.30;;
21458;SDS011;10891;49.350;19.386;2022-10-31T13:33:29;18.77;;;7.00;;
21458;SDS011;10891;49.350;19.386;2022-10-31T13:36:05;22.30;;;6.53;;
21458;SDS011;10891;49.350;19.386;2022-10-31T13:38:42;29.23;;;10.25;;
21458;SDS011;10891;49.350;19.386;2022-10-31T13:41:24;31.42;;;10.15;;
21458;SDS011;10891;49.350;19.386;2022-10-31T13:43:59;24.80;;;7.35;;
21458;SDS011;10891;49.350;19.386;2022-10-31T13:46:35;27.48;;;7.90;;
21458;SDS011;10891;49.350;19.386;2022-10-31T13:49:04;27.98;;;8.88;;
21458;SDS011;10891;49.350;19.386;2022-10-31T13:51:47;25.63;;;9.65;;
21458;SDS011;10891;49.350;19.386;2022-10-31T13:54:20;36.50;;;6.35;;
21458;SDS011;10891;49.350;19.386;2022-10-31T13:56:50;15.55;;;5.60;;
21458;SDS011;10891;49.350;19.386;2022-10-31T13:59:19;32.78;;;7.20;;
21458;SDS011;10891;49.350;19.386;2022-10-31T14:01:49;32.03;;;9.13;;
21458;SDS011;10891;49.350;19.386;2022-10-31T14:04:19;24.20;;;5.82;;
21458;SDS011;10891;49.350;19.386;2022-10-31T14:06:51;16.98;;;4.18;;
21458;SDS011;10891;49.350;19.386;2022-10-31T14:09:26;20.85;;;5.30;;
21458;SDS011;10891;49.350;19.386;2022-10-31T14:11:57;14.55;;;4.85;;
21458;SDS011;10891;49.350;19.386;2022-10-31T14:14:29;17.42;;;4.30;;
21458;SDS011;10891;49.350;19.386;2022-10-31T14:17:01;19.65;;;5.10;;
21458;SDS011;10891;49.350;19.386;2022-10-31T14:19:29;21.17;;;5.40;;
21458;SDS011;10891;49.350;19.386;2022-10-31T14:21:55;62.00;;;7.97;;
21458;SDS011;10891;49.350;19.386;2022-10-31T14:24:31;23.65;;;7.45;;
21458;SDS011;10891;49.350;19.386;2022-10-31T14:27:01;18.27;;;7.47;;
21458;SDS011;10891;49.350;19.386;2022-10-31T14:29:31;27.83;;;7.38;;
21458;SDS011;10891;49.350;19.386;2022-10-31T14:32:01;26.30;;;7.20;;
21458;SDS011;10891;49.350;19.386;2022-10-31T14:34:36;22.67;;;6.63;;
21458;SDS011;10891;49.350;19.386;2022-10-31T14:40:22;23.10;;;9.65;;
21458;SDS011;10891;49.350;19.386;2022-10-31T14:43:09;30.42;;;12.45;;
21458;SDS011;10891;49.350;19.386;2022-10-31T14:46:02;34.50;;;11.50;;
21458;SDS011;10891;49.350;19.386;2022-10-31T14:48:54;22.50;;;10.10;;
21458;SDS011;10891;49.350;19.386;2022-10-31T14:51:33;35.88;;;16.45;;
21458;SDS011;10891;49.350;19.386;2022-10-31T14:54:03;33.10;;;16.20;;
21458;SDS011;10891;49.350;19.386;2022-10-31T14:56:33;63.45;;;32.15;;
21458;SDS011;10891;49.350;19.386;2022-10-31T14:59:06;47.30;;;22.75;;